createdAt,value
2022-08-09T00:01:10.729Z,2.70
2022-08-09T00:04:06.028Z,2.73
2022-08-09T00:06:28.056Z,2.97
2022-08-09T00:08:57.102Z,3.00
2022-08-09T00:11:56.929Z,2.97
2022-08-09T00:14:11.568Z,3.17
2022-08-09T00:16:44.911Z,3.57
2022-08-09T00:19:14.365Z,2.90
2022-08-09T00:21:56.218Z,3.33
2022-08-09T00:24:24.730Z,3.27
2022-08-09T00:26:54.049Z,3.43
2022-08-09T00:30:10.091Z,3.17
2022-08-09T00:32:07.448Z,3.23
2022-08-09T00:34:34.059Z,3.17
2022-08-09T00:37:01.025Z,3.67
2022-08-09T00:40:13.263Z,3.40
2022-08-09T00:44:16.132Z,3.70
2022-08-09T00:45:03.528Z,3.60
2022-08-09T00:47:41.982Z,3.23
2022-08-09T00:50:14.606Z,4.03
2022-08-09T00:52:42.428Z,3.53
2022-08-09T00:55:16.719Z,4.00
2022-08-09T00:57:59.254Z,4.10
2022-08-09T01:00:26.744Z,4.70
2022-08-09T01:03:16.514Z,4.60
2022-08-09T01:05:54.796Z,4.20
2022-08-09T01:08:27.660Z,4.20
2022-08-09T01:11:15.172Z,4.60
2022-08-09T01:14:02.442Z,4.33
2022-08-09T01:16:36.663Z,4.07
2022-08-09T01:19:42.341Z,4.40
2022-08-09T01:22:51.514Z,4.20
2022-08-09T01:25:31.232Z,4.47
2022-08-09T01:28:01.428Z,4.70
2022-08-09T01:30:35.576Z,4.00
2022-08-09T01:33:18.121Z,4.77
2022-08-09T01:36:03.100Z,4.70
2022-08-09T01:38:36.217Z,4.43
2022-08-09T01:41:11.962Z,4.50
2022-08-09T01:43:50.522Z,4.73
2022-08-09T01:46:27.929Z,4.50
2022-08-09T01:49:10.702Z,4.83
2022-08-09T01:51:44.347Z,4.63
2022-08-09T01:54:21.379Z,4.73
2022-08-09T01:56:51.861Z,5.37
2022-08-09T01:59:21.111Z,5.13
2022-08-09T02:01:58.989Z,5.43
2022-08-09T02:04:29.603Z,4.90
2022-08-09T02:07:15.561Z,5.30
2022-08-09T02:10:05.601Z,5.03
2022-08-09T02:12:34.989Z,5.97
2022-08-09T02:15:06.426Z,5.57
2022-08-09T02:18:01.536Z,5.63
2022-08-09T02:20:26.494Z,5.80
2022-08-09T02:23:07.037Z,5.60
2022-08-09T02:25:42.310Z,6.10
2022-08-09T02:28:24.257Z,6.27
2022-08-09T02:30:58.473Z,6.50
2022-08-09T02:33:38.116Z,6.37
2022-08-09T02:36:26.296Z,5.83
2022-08-09T02:38:58.394Z,6.20
2022-08-09T02:41:38.102Z,6.00
2022-08-09T02:44:13.659Z,6.43
2022-08-09T02:46:52.104Z,6.80
2022-08-09T02:49:20.598Z,7.00
2022-08-09T02:52:07.305Z,6.77
2022-08-09T02:54:36.153Z,6.47
2022-08-09T02:57:23.457Z,6.90
2022-08-09T03:00:25.005Z,7.20
2022-08-09T03:02:58.656Z,7.27
2022-08-09T03:05:29.801Z,7.20
2022-08-09T03:08:03.820Z,7.93
2022-08-09T03:10:32.827Z,7.87
2022-08-09T03:13:00.280Z,7.67
2022-08-09T03:16:04.484Z,7.07
2022-08-09T03:18:30.577Z,7.20
2022-08-09T03:20:59.394Z,7.00
2022-08-09T03:23:26.540Z,6.57
2022-08-09T03:25:57.660Z,7.10
2022-08-09T03:28:27.050Z,6.33
2022-08-09T03:30:55.496Z,6.27
2022-08-09T03:33:23.292Z,6.53
2022-08-09T03:36:12.554Z,6.53
2022-08-09T03:38:43.454Z,6.77
2022-08-09T03:41:14.801Z,6.40
2022-08-09T03:43:42.809Z,7.10
2022-08-09T03:46:30.299Z,6.20
2022-08-09T03:48:59.471Z,6.17
2022-08-09T03:51:55.062Z,6.07
2022-08-09T03:54:19.317Z,6.10
2022-08-09T03:56:58.163Z,6.50
2022-08-09T03:59:27.183Z,6.40
2022-08-09T04:01:59.264Z,6.33
2022-08-09T04:04:32.498Z,6.33
2022-08-09T04:07:03.515Z,6.23
2022-08-09T04:09:41.863Z,6.43
2022-08-09T04:12:30.493Z,6.87
2022-08-09T04:15:01.484Z,7.30
2022-08-09T04:17:38.210Z,7.03
2022-08-09T04:20:07.082Z,7.10
2022-08-09T04:22:34.397Z,6.47
2022-08-09T04:25:04.066Z,7.00
2022-08-09T04:27:31.294Z,7.30
2022-08-09T04:29:59.596Z,7.77
2022-08-09T04:32:33.613Z,7.30
2022-08-09T04:35:01.236Z,6.93
2022-08-09T04:37:42.060Z,6.83
2022-08-09T04:40:19.155Z,7.03
2022-08-09T04:42:55.669Z,7.23
2022-08-09T04:45:23.693Z,6.93
2022-08-09T04:48:00.200Z,6.07
2022-08-09T04:50:33.734Z,6.63
2022-08-09T04:53:13.170Z,7.17
2022-08-09T04:55:57.710Z,7.13
2022-08-09T04:58:32.864Z,7.43
2022-08-09T05:01:01.435Z,7.87
2022-08-09T05:03:41.248Z,7.47
2022-08-09T05:06:25.768Z,6.83
2022-08-09T05:09:00.015Z,7.90
2022-08-09T05:11:30.453Z,7.60
2022-08-09T05:13:59.537Z,8.07
2022-08-09T05:16:31.463Z,7.23
2022-08-09T05:19:00.215Z,7.23
2022-08-09T05:21:29.911Z,8.00
2022-08-09T05:24:01.482Z,7.10
2022-08-09T05:26:36.728Z,7.60
2022-08-09T05:29:17.260Z,7.37
2022-08-09T05:31:47.545Z,6.57
2022-08-09T05:34:18.718Z,6.57
2022-08-09T05:36:47.254Z,6.43
2022-08-09T05:39:28.562Z,6.00
2022-08-09T05:41:56.457Z,6.60
2022-08-09T05:44:32.217Z,7.87
2022-08-09T05:46:59.299Z,6.43
2022-08-09T05:50:25.298Z,6.83
2022-08-09T05:52:12.517Z,6.60
2022-08-09T05:54:40.226Z,5.90
2022-08-09T05:57:07.785Z,6.23
2022-08-09T05:59:39.689Z,5.87
2022-08-09T06:02:09.141Z,6.50
2022-08-09T06:04:36.810Z,5.43
2022-08-09T06:07:11.598Z,6.17
2022-08-09T06:10:01.528Z,5.00
2022-08-09T06:12:30.390Z,4.83
2022-08-09T06:15:00.929Z,5.57
2022-08-09T06:17:40.362Z,4.90
2022-08-09T06:20:08.405Z,4.77
2022-08-09T06:22:35.629Z,4.00
2022-08-09T06:25:02.874Z,4.60
2022-08-09T06:27:43.138Z,4.80
2022-08-09T06:30:16.937Z,4.13
2022-08-09T06:33:00.135Z,4.80
2022-08-09T06:35:56.093Z,4.27
2022-08-09T06:38:19.257Z,4.53
2022-08-09T06:40:46.040Z,4.20
2022-08-09T06:43:14.034Z,4.40
2022-08-09T06:46:07.129Z,4.30
2022-08-09T06:48:31.126Z,4.53
2022-08-09T06:51:01.349Z,4.30
2022-08-09T06:53:33.191Z,3.90
2022-08-09T06:56:09.255Z,4.10
2022-08-09T07:00:47.466Z,4.17
2022-08-09T07:01:24.227Z,3.47
2022-08-09T07:03:57.864Z,3.30
2022-08-09T07:06:30.488Z,2.80
2022-08-09T07:08:57.139Z,3.93
2022-08-09T07:11:25.485Z,2.42
2022-08-09T07:14:04.830Z,2.65
2022-08-09T07:16:43.461Z,3.80
2022-08-09T07:19:22.932Z,2.50
2022-08-09T07:21:57.223Z,2.55
2022-08-09T07:24:31.903Z,2.60
2022-08-09T07:27:24.057Z,2.50
2022-08-09T07:29:57.146Z,2.58
2022-08-09T07:32:31.960Z,2.35
2022-08-09T07:34:59.402Z,2.75
2022-08-09T07:37:26.040Z,2.05
2022-08-09T07:39:53.774Z,2.00
2022-08-09T07:42:32.449Z,1.90
2022-08-09T07:45:01.747Z,2.38
2022-08-09T07:47:49.530Z,2.20
2022-08-09T07:50:21.674Z,2.03
2022-08-09T07:53:03.079Z,2.13
2022-08-09T07:55:41.537Z,2.10
2022-08-09T07:58:19.075Z,2.00
2022-08-09T08:00:58.736Z,2.20
2022-08-09T08:03:32.679Z,2.00
2022-08-09T08:05:59.292Z,2.17
2022-08-09T08:09:02.258Z,2.42
2022-08-09T08:12:09.691Z,2.15
2022-08-09T08:14:00.598Z,2.00
2022-08-09T08:16:31.712Z,2.40
2022-08-09T08:19:03.284Z,2.60
2022-08-09T08:21:31.575Z,2.28
2022-08-09T08:24:01.478Z,2.08
2022-08-09T08:26:47.449Z,1.90
2022-08-09T08:29:27.806Z,2.05
2022-08-09T08:32:03.274Z,2.35
2022-08-09T08:34:34.391Z,1.73
2022-08-09T08:37:02.186Z,1.63
2022-08-09T08:39:28.990Z,2.05
2022-08-09T08:42:05.364Z,1.90
2022-08-09T08:44:36.031Z,1.75
2022-08-09T08:47:04.791Z,1.80
2022-08-09T08:49:46.679Z,2.33
2022-08-09T08:52:48.510Z,1.98
2022-08-09T08:55:05.806Z,2.10
2022-08-09T08:57:35.339Z,1.77
2022-08-09T09:00:12.627Z,2.20
2022-08-09T09:02:46.827Z,2.00
2022-08-09T09:05:33.353Z,2.20
2022-08-09T09:08:29.916Z,1.90
2022-08-09T09:11:01.016Z,1.95
2022-08-09T09:13:41.937Z,1.80
2022-08-09T09:16:15.071Z,1.70
2022-08-09T09:18:48.038Z,2.00
2022-08-09T09:21:15.789Z,1.92
2022-08-09T09:23:49.904Z,1.90
2022-08-09T09:26:26.208Z,2.10
2022-08-09T09:29:04.378Z,1.98
2022-08-09T09:32:04.016Z,1.88
2022-08-09T09:34:25.515Z,2.25
2022-08-09T09:36:56.716Z,1.63
2022-08-09T09:39:42.795Z,1.92
2022-08-09T09:42:24.473Z,1.80
2022-08-09T09:45:00.802Z,1.92
2022-08-09T09:47:30.479Z,2.28
2022-08-09T09:50:14.942Z,1.88
2022-08-09T09:52:56.332Z,1.90
2022-08-09T09:55:32.296Z,2.17
2022-08-09T09:58:19.316Z,2.25
2022-08-09T10:00:55.277Z,1.98
2022-08-09T10:03:57.016Z,1.90
2022-08-09T10:06:32.073Z,2.20
2022-08-09T10:09:02.884Z,2.20
2022-08-09T10:12:00.044Z,1.73
2022-08-09T10:14:33.154Z,1.98
2022-08-09T10:17:24.290Z,2.30
2022-08-09T10:19:58.920Z,2.45
2022-08-09T10:22:36.303Z,1.92
2022-08-09T10:25:12.102Z,2.40
2022-08-09T10:27:56.655Z,2.10
2022-08-09T10:34:04.230Z,1.95
2022-08-09T10:36:04.786Z,2.17
2022-08-09T10:38:54.405Z,2.10
2022-08-09T10:41:20.426Z,1.85
2022-08-09T10:43:58.679Z,2.55
2022-08-09T10:46:34.134Z,2.67
2022-08-09T10:49:42.277Z,2.20
2022-08-09T10:52:54.946Z,2.47
2022-08-09T10:55:35.654Z,2.30
2022-08-09T10:58:37.029Z,1.80
2022-08-09T11:03:06.925Z,2.13
2022-08-09T11:04:27.897Z,2.13
2022-08-09T11:07:00.023Z,2.00
2022-08-09T11:09:45.320Z,2.30
2022-08-09T11:12:21.569Z,2.40
2022-08-09T11:15:15.404Z,2.25
2022-08-09T11:17:56.863Z,2.50
2022-08-09T11:20:41.398Z,2.30
2022-08-09T11:23:10.541Z,2.22
2022-08-09T11:25:46.197Z,1.88
2022-08-09T11:28:33.819Z,2.10
2022-08-09T11:31:03.407Z,2.13
2022-08-09T11:33:44.215Z,2.20
2022-08-09T11:36:35.409Z,2.20
2022-08-09T11:39:03.775Z,1.92
2022-08-09T11:41:38.130Z,1.70
2022-08-09T11:44:07.406Z,2.13
2022-08-09T11:46:57.776Z,1.80
2022-08-09T11:50:53.869Z,2.08
2022-08-09T11:53:28.091Z,1.90
2022-08-09T11:55:52.068Z,1.90
2022-08-09T11:58:30.453Z,1.90
2022-08-09T12:01:03.389Z,2.10
2022-08-09T12:03:56.911Z,2.42
2022-08-09T12:06:26.739Z,2.03
2022-08-09T12:09:01.266Z,1.92
2022-08-09T12:11:29.066Z,2.60
2022-08-09T12:14:09.507Z,1.98
2022-08-09T12:16:41.530Z,2.28
2022-08-09T12:19:12.179Z,2.05
2022-08-09T12:21:50.340Z,1.63
2022-08-09T12:24:23.827Z,2.00
2022-08-09T12:29:13.476Z,1.70
2022-08-09T12:29:43.993Z,2.05
2022-08-09T12:32:27.078Z,1.73
2022-08-09T12:34:59.831Z,1.75
2022-08-09T12:37:49.888Z,1.70
2022-08-09T12:40:18.575Z,1.60
2022-08-09T12:42:50.386Z,1.60
2022-08-09T12:45:34.872Z,1.80
2022-08-09T12:48:19.918Z,2.03
2022-08-09T12:50:48.670Z,1.80
2022-08-09T12:53:38.652Z,2.28
2022-08-09T12:56:40.152Z,1.80
2022-08-09T12:59:11.903Z,2.25
2022-08-09T13:01:49.027Z,1.52
2022-08-09T13:04:37.153Z,1.95
2022-08-09T13:07:19.788Z,2.15
2022-08-09T13:10:05.139Z,1.77
2022-08-09T13:12:32.872Z,1.92
2022-08-09T13:15:08.000Z,2.10
2022-08-09T13:18:03.545Z,1.85
2022-08-09T13:20:37.661Z,1.90
2022-08-09T13:24:16.135Z,1.83
2022-08-09T13:26:42.469Z,1.90
2022-08-09T13:29:13.145Z,1.80
2022-08-09T13:32:16.053Z,2.08
2022-08-09T13:34:44.983Z,1.40
2022-08-09T13:37:14.947Z,1.67
2022-08-09T13:41:54.895Z,1.70
2022-08-09T13:42:49.949Z,1.90
2022-08-09T13:45:17.797Z,2.17
2022-08-09T13:47:49.481Z,1.83
2022-08-09T13:50:30.463Z,1.73
2022-08-09T13:52:59.305Z,1.80
2022-08-09T13:55:28.861Z,1.50
2022-08-09T13:57:58.287Z,1.63
2022-08-09T14:00:28.596Z,1.60
2022-08-09T14:03:17.197Z,1.70
2022-08-09T14:05:58.390Z,1.48
2022-08-09T14:08:29.927Z,1.70
2022-08-09T14:10:57.102Z,1.70
2022-08-09T14:14:16.250Z,1.83
2022-08-09T14:16:15.437Z,1.63
2022-08-09T14:18:49.386Z,1.85
2022-08-09T14:21:24.166Z,1.58
2022-08-09T14:23:54.835Z,1.50
2022-08-09T14:26:30.112Z,1.52
2022-08-09T14:29:25.553Z,1.85
2022-08-09T14:31:58.362Z,1.60
2022-08-09T14:34:33.100Z,1.60
2022-08-09T14:37:06.238Z,1.77
2022-08-09T14:39:46.467Z,1.80
2022-08-09T14:42:31.744Z,1.90
2022-08-09T14:46:39.340Z,1.70
2022-08-09T14:47:57.821Z,2.05
2022-08-09T14:50:30.987Z,1.67
2022-08-09T14:52:58.941Z,1.83
2022-08-09T14:55:25.857Z,1.75
2022-08-09T14:58:00.089Z,1.95
2022-08-09T15:00:27.068Z,1.73
2022-08-09T15:02:58.202Z,1.60
2022-08-09T15:05:25.046Z,1.92
2022-08-09T15:07:56.505Z,1.80
2022-08-09T15:10:26.363Z,1.60
2022-08-09T15:12:54.231Z,1.63
2022-08-09T15:15:21.610Z,1.63
2022-08-09T15:17:52.313Z,1.65
2022-08-09T15:21:55.732Z,1.60
2022-08-09T15:24:01.170Z,1.60
2022-08-09T15:25:57.322Z,1.35
2022-08-09T15:28:27.382Z,1.73
2022-08-09T15:31:08.592Z,1.60
2022-08-09T15:34:27.490Z,1.77
2022-08-09T15:36:28.881Z,1.42
2022-08-09T15:39:00.213Z,1.90
2022-08-09T15:41:31.500Z,1.70
2022-08-09T15:43:59.984Z,1.45
2022-08-09T15:46:33.666Z,1.80
2022-08-09T15:49:20.684Z,1.45
2022-08-09T15:52:04.554Z,2.08
2022-08-09T15:54:44.579Z,1.40
2022-08-09T15:57:33.797Z,1.52
2022-08-09T16:00:02.389Z,1.60
2022-08-09T16:02:28.961Z,1.80
2022-08-09T16:04:55.866Z,1.80
2022-08-09T16:07:22.497Z,1.60
2022-08-09T16:10:02.437Z,1.63
2022-08-09T16:12:32.576Z,1.77
2022-08-09T16:14:59.622Z,1.65
2022-08-09T16:17:28.590Z,1.60
2022-08-09T16:20:05.094Z,1.35
2022-08-09T16:22:42.256Z,1.73
2022-08-09T16:25:10.619Z,1.80
2022-08-09T16:27:38.118Z,1.35
2022-08-09T16:30:15.277Z,1.70
2022-08-09T16:33:11.344Z,1.50
2022-08-09T16:35:56.925Z,1.63
2022-08-09T16:38:26.925Z,1.65
2022-08-09T16:40:53.623Z,1.95
2022-08-09T16:43:22.169Z,1.73
2022-08-09T16:45:53.829Z,1.90
2022-08-09T16:48:40.749Z,2.08
2022-08-09T16:51:14.089Z,1.90
2022-08-09T16:54:08.875Z,1.80
2022-08-09T16:56:30.859Z,2.00
2022-08-09T16:58:58.380Z,2.10
2022-08-09T17:01:25.768Z,1.95
2022-08-09T17:03:53.315Z,1.95
2022-08-09T17:06:31.703Z,2.13
2022-08-09T17:09:16.194Z,1.85
2022-08-09T17:11:48.004Z,1.60
2022-08-09T17:14:28.089Z,1.90
2022-08-09T17:17:01.574Z,1.85
2022-08-09T17:19:47.703Z,1.67
2022-08-09T17:22:33.998Z,1.70
2022-08-09T17:25:10.133Z,1.50
2022-08-09T17:27:49.443Z,2.13
2022-08-09T17:30:25.712Z,1.70
2022-08-09T17:32:53.093Z,1.60
2022-08-09T17:35:19.835Z,1.50
2022-08-09T17:38:12.053Z,1.55
2022-08-09T17:40:35.170Z,1.88
2022-08-09T17:43:32.132Z,1.70
2022-08-09T17:46:03.905Z,1.60
2022-08-09T17:48:40.417Z,1.77
2022-08-09T17:51:18.779Z,1.73
2022-08-09T17:53:53.318Z,1.60
2022-08-09T17:56:27.703Z,2.00
2022-08-09T17:58:56.478Z,1.70
2022-08-09T18:01:23.912Z,2.47
2022-08-09T18:03:54.561Z,1.52
2022-08-09T18:06:31.670Z,1.55
2022-08-09T18:09:04.608Z,1.38
2022-08-09T18:11:46.901Z,1.23
2022-08-09T18:14:21.966Z,1.30
2022-08-09T18:16:49.779Z,1.33
2022-08-09T18:21:00.796Z,1.60
2022-08-09T18:22:05.715Z,1.30
2022-08-09T18:24:39.996Z,1.50
2022-08-09T18:27:08.430Z,1.40
2022-08-09T18:30:41.445Z,1.50
2022-08-09T18:32:21.710Z,1.25
2022-08-09T18:34:48.884Z,1.63
2022-08-09T18:37:47.327Z,1.38
2022-08-09T18:40:02.743Z,1.30
2022-08-09T18:42:30.477Z,1.50
2022-08-09T18:44:57.263Z,1.30
2022-08-09T18:47:32.812Z,1.33
2022-08-09T18:50:05.946Z,1.35
2022-08-09T18:52:36.360Z,1.25
2022-08-09T18:55:05.065Z,1.50
2022-08-09T18:57:42.920Z,1.33
2022-08-09T19:00:11.103Z,1.50
2022-08-09T19:02:38.276Z,1.70
2022-08-09T19:05:20.420Z,1.33
2022-08-09T19:08:03.967Z,1.10
2022-08-09T19:10:39.295Z,1.67
2022-08-09T19:13:18.140Z,1.40
2022-08-09T19:15:56.645Z,1.67
2022-08-09T19:18:32.957Z,1.85
2022-08-09T19:21:02.538Z,1.20
2022-08-09T19:24:35.829Z,1.33
2022-08-09T19:26:16.489Z,1.30
2022-08-09T19:28:48.941Z,1.83
2022-08-09T19:31:16.803Z,1.30
2022-08-09T19:33:43.977Z,1.33
2022-08-09T19:36:11.807Z,1.30
2022-08-09T19:38:40.239Z,1.30
2022-08-09T19:41:06.992Z,1.77
2022-08-09T19:44:00.967Z,1.87
2022-08-09T19:46:34.059Z,1.40
2022-08-09T19:50:07.060Z,1.33
2022-08-09T19:51:55.458Z,1.40
2022-08-09T19:54:27.108Z,1.53
2022-08-09T19:56:55.583Z,1.10
2022-08-09T19:59:58.413Z,1.10
2022-08-09T20:02:18.089Z,1.50
2022-08-09T20:04:59.041Z,1.30
2022-08-09T20:07:26.173Z,1.30
2022-08-09T20:10:17.592Z,1.40
2022-08-09T20:12:49.003Z,1.40
2022-08-09T20:16:34.296Z,1.40
2022-08-09T20:18:03.408Z,1.10
2022-08-09T20:20:34.244Z,1.57
2022-08-09T20:23:01.022Z,1.27
2022-08-09T20:25:28.934Z,1.63
2022-08-09T20:28:05.115Z,1.40
2022-08-09T20:30:33.658Z,1.27
2022-08-09T20:33:00.276Z,1.60
2022-08-09T20:35:28.403Z,1.30
2022-08-09T20:38:22.106Z,1.03
2022-08-09T20:40:44.127Z,1.47
2022-08-09T20:43:24.781Z,1.37
2022-08-09T20:45:59.344Z,1.43
2022-08-09T20:48:39.007Z,1.50
2022-08-09T20:51:06.479Z,1.23
2022-08-09T20:53:36.703Z,1.53
2022-08-09T20:56:06.397Z,1.10
2022-08-09T20:58:35.778Z,1.37
2022-08-09T21:01:13.972Z,1.50
2022-08-09T21:04:14.087Z,1.50
2022-08-09T21:06:42.573Z,1.37
2022-08-09T21:09:11.629Z,1.30
2022-08-09T21:14:26.664Z,2.40
2022-08-09T21:16:58.020Z,1.43
2022-08-09T21:20:17.591Z,1.50
2022-08-09T21:22:36.021Z,1.57
2022-08-09T21:25:18.409Z,1.50
2022-08-09T21:27:52.329Z,1.53
2022-08-09T21:30:22.420Z,1.40
2022-08-09T21:32:50.379Z,1.20
2022-08-09T21:35:17.318Z,1.50
2022-08-09T21:37:56.851Z,1.70
2022-08-09T21:40:31.020Z,1.27
2022-08-09T21:43:00.906Z,1.43
2022-08-09T21:45:27.984Z,1.20
2022-08-09T21:47:55.765Z,1.77
2022-08-09T21:50:33.876Z,1.43
2022-08-09T21:53:03.877Z,1.57
2022-08-09T21:55:30.539Z,1.70
2022-08-09T21:58:01.954Z,1.63
2022-08-09T22:00:34.395Z,1.77
2022-08-09T22:03:04.712Z,1.70
2022-08-09T22:05:41.851Z,1.87
2022-08-09T22:08:13.508Z,1.90
2022-08-09T22:11:50.258Z,1.50
2022-08-09T22:13:33.903Z,1.67
2022-08-09T22:16:03.563Z,1.80
2022-08-09T22:18:30.914Z,1.90
2022-08-09T22:21:00.307Z,1.37
2022-08-09T22:23:35.479Z,2.23
2022-08-09T22:26:23.298Z,1.60
2022-08-09T22:29:01.056Z,1.73
2022-08-09T22:31:34.571Z,1.90
2022-08-09T22:34:01.174Z,1.63
2022-08-09T22:36:27.790Z,2.63
2022-08-09T22:38:54.465Z,2.10
2022-08-09T22:41:21.214Z,2.37
2022-08-09T22:44:01.642Z,2.37
2022-08-09T22:48:16.513Z,2.17
2022-08-09T22:49:17.722Z,1.90
2022-08-09T22:51:49.679Z,1.67
2022-08-09T22:54:26.917Z,1.73
2022-08-09T22:56:56.569Z,2.13
2022-08-09T22:59:57.332Z,1.83
2022-08-09T23:02:11.287Z,1.73
2022-08-09T23:04:45.050Z,2.10
2022-08-09T23:08:21.709Z,1.90
2022-08-09T23:10:26.831Z,2.03
2022-08-09T23:12:53.644Z,2.10
2022-08-09T23:15:20.348Z,2.27
2022-08-09T23:17:47.033Z,2.37
2022-08-09T23:20:13.695Z,2.77
2022-08-09T23:22:40.616Z,2.00
2022-08-09T23:25:07.663Z,2.10
2022-08-09T23:27:34.547Z,1.90
2022-08-09T23:30:01.410Z,2.30
2022-08-09T23:32:28.500Z,1.70
2022-08-09T23:34:55.133Z,2.10
2022-08-09T23:37:22.851Z,2.20
2022-08-09T23:39:52.228Z,1.60
2022-08-09T23:42:18.834Z,2.00
2022-08-09T23:44:45.474Z,1.87
2022-08-09T23:47:12.396Z,2.63
2022-08-09T23:49:39.022Z,1.60
2022-08-09T23:52:05.739Z,1.80
2022-08-09T23:54:32.377Z,1.93
2022-08-09T23:56:59.114Z,2.07
2022-08-09T23:59:45.989Z,1.87
